Time;durP1;ratioP1;P1;durP2;ratioP2;P2;SDS_P1;SDS_P2;PMS_P1;PMS_P2;Temp;Humidity;BMP_temperature;BMP_pressure;BME280_temperature;BME280_humidity;BME280_pressure;Samples;Min_cycle;Max_cycle;Signal;HPM_P1;HPM_P2
2022/03/21 00:00:53;;;;;;;6.97;6.57;;;;;;;-1.85;57.53;103021.41;5033897;28;20037;-62
2022/03/21 00:03:22;;;;;;;7.05;6.65;;;;;;;-1.91;57.96;103018.94;5032399;28;20448;-61
2022/03/21 00:05:47;;;;;;;7.47;7.07;;;;;;;-1.91;57.98;103022.38;5032257;28;20029;-62
2022/03/21 00:08:17;;;;;;;6.40;6.10;;;;;;;-2.01;58.31;103016.53;5032624;28;20036;-61
2022/03/21 00:10:43;;;;;;;7.25;6.85;;;;;;;-2.05;57.93;103007.09;5037802;28;20017;-61
2022/03/21 00:13:09;;;;;;;7.15;6.75;;;;;;;-2.11;58.39;103015.03;5046276;28;20021;-61
2022/03/21 00:15:35;;;;;;;7.32;6.93;;;;;;;-2.15;59.08;103026.38;5051286;28;20021;-62
2022/03/21 00:18:04;;;;;;;7.07;6.68;;;;;;;-2.10;58.67;103019.34;5032750;28;20083;-62
2022/03/21 00:20:32;;;;;;;7.13;6.72;;;;;;;-2.19;58.50;103023.88;5032174;28;20437;-62
2022/03/21 00:22:57;;;;;;;6.72;6.43;;;;;;;-2.28;59.07;102999.78;5031050;28;20100;-61
2022/03/21 00:25:24;;;;;;;7.13;6.72;;;;;;;-2.23;58.83;103021.34;5032129;28;20022;-62
2022/03/21 00:27:49;;;;;;;7.03;6.63;;;;;;;-2.27;59.25;103022.28;5041750;28;20028;-63
2022/03/21 00:30:16;;;;;;;7.43;7.03;;;;;;;-2.35;59.70;103013.81;5033300;28;20041;-63
2022/03/21 00:32:43;;;;;;;7.15;6.75;;;;;;;-2.32;60.00;103031.91;5030128;28;20466;-63
2022/03/21 00:35:10;;;;;;;6.97;6.57;;;;;;;-2.33;59.91;103024.16;5026201;28;20033;-62
2022/03/21 00:37:37;;;;;;;6.97;6.57;;;;;;;-2.35;60.59;103019.00;5031864;28;20099;-63
2022/03/21 00:40:05;;;;;;;7.22;6.82;;;;;;;-2.35;60.52;103019.00;5031817;28;20026;-63
2022/03/21 00:42:33;;;;;;;7.50;7.10;;;;;;;-2.35;60.43;103015.50;5033265;28;20090;-63
2022/03/21 00:44:58;;;;;;;7.38;6.97;;;;;;;-2.37;60.60;103006.91;5040389;28;20037;-63
2022/03/21 00:47:24;;;;;;;6.97;6.57;;;;;;;-2.42;60.81;103012.22;5031542;28;20045;-62
2022/03/21 00:49:52;;;;;;;7.50;7.10;;;;;;;-2.47;60.84;103013.19;5038545;28;20033;-61
2022/03/21 00:52:18;;;;;;;7.50;7.10;;;;;;;-2.50;60.74;103003.66;5035551;28;20485;-63
2022/03/21 00:54:44;;;;;;;7.07;6.68;;;;;;;-2.55;61.30;103006.38;5040620;28;20496;-62
2022/03/21 00:57:09;;;;;;;7.63;7.20;;;;;;;-2.59;61.45;103012.50;5031530;28;20025;-62
2022/03/21 00:59:35;;;;;;;6.85;6.45;;;;;;;-2.61;62.21;103009.09;5031526;28;20167;-62
2022/03/21 01:02:00;;;;;;;7.10;6.70;;;;;;;-2.58;61.86;102998.63;5018042;28;20042;-61
2022/03/21 01:04:25;;;;;;;6.93;6.53;;;;;;;-2.64;62.32;103003.97;5019452;28;20436;-63
2022/03/21 01:06:51;;;;;;;7.20;6.80;;;;;;;-2.65;62.60;102994.44;5012313;28;20022;-63
2022/03/21 01:09:17;;;;;;;7.88;7.38;;;;;;;-2.72;62.49;103003.22;5026391;28;20025;-62
2022/03/21 01:11:43;;;;;;;7.35;6.95;;;;;;;-2.84;62.53;102977.50;5043498;28;20022;-62
2022/03/21 01:14:10;;;;;;;7.20;6.80;;;;;;;-2.69;62.05;103004.94;5031435;28;20585;-62
2022/03/21 01:16:36;;;;;;;6.65;6.35;;;;;;;-2.72;62.81;102994.56;5042192;28;20071;-61
2022/03/21 01:19:01;;;;;;;7.00;6.60;;;;;;;-2.78;63.00;102999.03;5038839;28;20076;-62
2022/03/21 01:21:29;;;;;;;7.47;7.07;;;;;;;-2.78;62.79;102996.44;5031270;28;20033;-63
2022/03/21 01:23:55;;;;;;;6.95;6.55;;;;;;;-2.76;62.38;103003.34;5032513;28;20055;-62
2022/03/21 01:26:22;;;;;;;7.15;6.75;;;;;;;-2.83;63.39;102997.38;5045907;28;20460;-62
2022/03/21 01:28:47;;;;;;;7.07;6.68;;;;;;;-2.76;63.28;103003.34;5048520;28;20387;-62
2022/03/21 01:31:13;;;;;;;6.60;6.30;;;;;;;-2.84;63.82;102996.53;5046552;28;20172;-63
2022/03/21 01:33:40;;;;;;;6.90;6.50;;;;;;;-2.83;63.44;102985.25;5031039;28;20377;-63
2022/03/21 01:36:07;;;;;;;6.90;6.50;;;;;;;-2.75;63.03;102995.50;5030185;28;20057;-63
2022/03/21 01:38:33;;;;;;;7.25;6.85;;;;;;;-2.65;62.41;102994.44;5031215;28;20425;-61
2022/03/21 01:40:59;;;;;;;7.15;6.75;;;;;;;-2.73;62.27;102995.47;5032055;28;20051;-62
2022/03/21 01:43:24;;;;;;;6.60;6.30;;;;;;;-2.79;62.98;103005.13;5040287;28;20468;-63
2022/03/21 01:45:50;;;;;;;7.10;6.70;;;;;;;-2.84;62.77;103001.72;5049356;28;20463;-62
2022/03/21 01:48:15;;;;;;;6.78;6.40;;;;;;;-2.94;62.49;102989.78;5036551;28;20087;-62
2022/03/21 01:50:43;;;;;;;7.18;6.78;;;;;;;-2.92;62.34;102993.22;5049330;28;20025;-62
2022/03/21 01:55:58;;;;;;;7.07;6.68;;;;;;;-3.03;63.26;102978.72;5033776;28;20056;-62
2022/03/21 01:58:27;;;;;;;6.75;6.38;;;;;;;-2.85;62.65;103001.75;5036650;28;20120;-63
2022/03/21 02:00:52;;;;;;;7.28;6.88;;;;;;;-2.96;63.34;102994.16;5038751;28;20028;-62
2022/03/21 02:03:22;;;;;;;7.50;7.10;;;;;;;-3.04;63.58;102993.44;5034545;28;20020;-63
2022/03/21 02:05:48;;;;;;;7.60;7.15;;;;;;;-3.09;63.31;103003.03;5040016;28;20388;-62
2022/03/21 02:08:15;;;;;;;6.95;6.55;;;;;;;-3.12;63.38;102992.72;5042878;28;20029;-62
2022/03/21 02:10:45;;;;;;;7.13;6.72;;;;;;;-3.12;63.61;103003.09;5049882;28;20029;-62
2022/03/21 02:13:12;;;;;;;6.63;6.32;;;;;;;-3.10;64.01;103004.78;5024649;28;20028;-62
2022/03/21 02:15:38;;;;;;;6.90;6.50;;;;;;;-3.11;64.04;103008.25;5038533;28;20025;-61
2022/03/21 02:18:06;;;;;;;7.05;6.65;;;;;;;-3.14;64.42;103008.31;5054448;28;20032;-62
2022/03/21 02:20:35;;;;;;;6.50;6.20;;;;;;;-3.18;64.64;103000.59;5054329;28;20021;-62
2022/03/21 02:23:13;;;;;;;7.35;6.95;;;;;;;-3.28;65.28;102986.94;5052778;28;20096;-63
2022/03/21 02:25:42;;;;;;;7.00;6.60;;;;;;;-3.23;65.65;102998.09;5039058;28;20040;-62
2022/03/21 02:28:12;;;;;;;7.40;7.00;;;;;;;-3.28;65.50;102996.44;5036915;28;20102;-63
2022/03/21 02:30:44;;;;;;;7.40;7.00;;;;;;;-3.26;65.77;102997.28;5034295;28;20021;-62
2022/03/21 02:33:11;;;;;;;7.00;6.60;;;;;;;-3.34;65.90;102998.25;5043037;28;20113;-61
2022/03/21 02:35:38;;;;;;;6.95;6.60;;;;;;;-3.34;66.12;103005.19;5034489;28;20025;-61
2022/03/21 02:38:06;;;;;;;7.20;6.80;;;;;;;-3.38;65.84;102993.13;5034211;28;20112;-62
2022/03/21 02:40:32;;;;;;;6.72;6.43;;;;;;;-3.50;66.32;102985.56;5020102;28;20026;-62
2022/03/21 02:42:57;;;;;;;7.38;6.97;;;;;;;-3.39;66.33;102997.47;5034670;28;20047;-62
2022/03/21 02:45:23;;;;;;;6.80;6.50;;;;;;;-3.45;66.82;102999.28;5042357;28;20079;-62
2022/03/21 02:47:49;;;;;;;8.00;7.50;;;;;;;-3.50;66.85;102999.38;5033826;28;20555;-63
2022/03/21 02:50:39;;;;;;;7.35;6.95;;;;;;;-3.47;66.99;103001.91;5037391;28;20025;-61
2022/03/21 02:53:06;;;;;;;7.75;7.32;;;;;;;-3.57;67.35;102994.31;5034750;28;20025;-62
2022/03/21 02:55:33;;;;;;;7.30;6.90;;;;;;;-3.53;67.74;103007.19;5053506;28;20076;-62
2022/03/21 02:57:58;;;;;;;7.38;6.97;;;;;;;-3.56;67.18;102996.03;5048454;28;20029;-61
2022/03/21 03:00:24;;;;;;;7.32;6.93;;;;;;;-3.49;66.82;103008.03;5041950;28;20043;-62
2022/03/21 03:02:49;;;;;;;7.00;6.60;;;;;;;-3.43;66.71;103007.94;5034824;28;20033;-61
2022/03/21 03:05:15;;;;;;;7.13;6.72;;;;;;;-3.57;66.77;103007.28;5042187;28;20402;-62
2022/03/21 03:07:40;;;;;;;7.15;6.75;;;;;;;-3.53;66.89;102999.41;5034029;28;20392;-62
2022/03/21 03:10:06;;;;;;;7.07;6.68;;;;;;;-3.60;67.28;103005.56;5041939;28;20067;-62
2022/03/21 03:12:32;;;;;;;7.93;7.43;;;;;;;-3.61;67.17;103009.06;5053363;28;20025;-62
2022/03/21 03:14:57;;;;;;;6.40;6.10;;;;;;;-3.60;67.59;102997.78;5053585;28;20550;-61
2022/03/21 03:17:23;;;;;;;6.55;6.25;;;;;;;-3.55;67.50;103003.78;5046845;28;20033;-61
2022/03/21 03:19:49;;;;;;;6.75;6.45;;;;;;;-3.63;67.28;102995.25;5032261;28;20063;-62
2022/03/21 03:22:16;;;;;;;7.03;6.63;;;;;;;-3.61;67.00;102996.94;5040104;28;20083;-62
2022/03/21 03:24:42;;;;;;;6.57;6.28;;;;;;;-3.55;66.47;103000.34;5042943;28;20040;-62
2022/03/21 03:27:07;;;;;;;6.60;6.30;;;;;;;-3.61;66.98;103002.13;5032237;28;20033;-62
2022/03/21 03:29:33;;;;;;;7.05;6.65;;;;;;;-3.61;66.97;103002.13;5033142;28;20104;-61
2022/03/21 03:32:06;;;;;;;6.97;6.68;;;;;;;-3.66;67.15;103003.94;5031828;28;20025;-62
2022/03/21 03:34:33;;;;;;;6.80;6.47;;;;;;;-3.72;67.67;103004.03;5044407;28;20033;-62
2022/03/21 03:36:59;;;;;;;7.28;6.88;;;;;;;-3.73;67.87;103010.09;5033123;28;20485;-62
2022/03/21 03:39:25;;;;;;;6.63;6.32;;;;;;;-3.72;68.23;103000.59;5033346;28;20029;-62
2022/03/21 03:41:51;;;;;;;6.80;6.50;;;;;;;-3.77;68.79;103005.84;5033839;28;20030;-62
2022/03/21 03:44:17;;;;;;;7.00;6.60;;;;;;;-3.80;68.65;103010.22;5032765;28;20409;-62
2022/03/21 03:46:44;;;;;;;7.00;6.60;;;;;;;-3.80;67.76;103002.44;5033165;28;20021;-63
2022/03/21 03:49:09;;;;;;;6.57;6.28;;;;;;;-3.72;67.10;103006.63;5031681;28;20025;-61
2022/03/21 03:51:35;;;;;;;6.72;6.43;;;;;;;-3.75;66.29;103008.41;5035902;28;20028;-62
2022/03/21 03:54:00;;;;;;;7.00;6.60;;;;;;;-3.92;67.09;102988.75;5044224;28;20396;-63
2022/03/21 03:56:25;;;;;;;7.18;6.78;;;;;;;-3.79;67.90;103004.16;5048734;28;20045;-62
2022/03/21 03:58:51;;;;;;;6.90;6.50;;;;;;;-3.80;68.33;103000.69;5033272;28;20488;-62
2022/03/21 04:01:16;;;;;;;6.95;6.60;;;;;;;-3.90;68.86;103005.13;5032521;28;20071;-62
2022/03/21 04:03:45;;;;;;;7.10;6.70;;;;;;;-3.83;69.06;103007.66;5031102;28;20029;-62
2022/03/21 04:06:21;;;;;;;7.35;6.95;;;;;;;-3.88;69.07;102997.38;5031626;28;20025;-62
2022/03/21 04:08:48;;;;;;;7.35;6.95;;;;;;;-3.88;69.71;102999.97;5040548;28;20017;-62
2022/03/21 04:11:14;;;;;;;6.35;6.05;;;;;;;-3.86;69.58;102993.00;5050257;28;20486;-62
2022/03/21 04:13:41;;;;;;;6.78;6.47;;;;;;;-3.84;69.70;102996.41;5034694;28;20045;-63
2022/03/21 04:16:07;;;;;;;7.30;6.90;;;;;;;-3.79;69.47;102998.97;5038720;28;20036;-63
2022/03/21 04:18:33;;;;;;;7.10;6.70;;;;;;;-3.57;68.43;102997.75;5039565;28;20082;-62
2022/03/21 04:20:59;;;;;;;7.25;6.85;;;;;;;-3.43;67.54;102969.88;5040718;28;20504;-63
2022/03/21 04:23:25;;;;;;;7.00;6.60;;;;;;;-2.98;66.26;103003.72;5032280;28;20025;-63
2022/03/21 04:25:50;;;;;;;7.03;6.63;;;;;;;-2.80;65.08;102990.38;5029140;28;20026;-63
2022/03/21 04:28:16;;;;;;;6.57;6.28;;;;;;;-2.49;64.84;103002.81;5037845;28;20085;-62
2022/03/21 04:30:43;;;;;;;6.07;5.78;;;;;;;-2.16;63.18;103000.41;5042670;28;20056;-63
2022/03/21 04:33:09;;;;;;;6.20;5.90;;;;;;;-1.99;62.23;102993.94;5035337;28;20029;-62
2022/03/21 04:35:36;;;;;;;6.10;5.80;;;;;;;-1.50;61.60;102999.78;5037510;28;20032;-62
2022/03/21 04:38:02;;;;;;;5.85;5.55;;;;;;;-1.10;60.38;102997.09;5032003;28;20455;-62
2022/03/21 04:40:27;;;;;;;6.00;5.70;;;;;;;-0.75;58.55;103005.72;5031975;28;20017;-62
2022/03/21 04:42:53;;;;;;;6.43;6.13;;;;;;;-0.36;57.31;103003.78;5031904;28;20057;-63
2022/03/21 04:45:20;;;;;;;6.30;6.00;;;;;;;-0.05;56.15;103001.97;5043718;28;20480;-63
2022/03/21 04:47:45;;;;;;;6.13;5.82;;;;;;;0.43;54.64;102987.44;5040637;28;20029;-63
2022/03/21 04:50:14;;;;;;;6.07;5.78;;;;;;;0.95;52.64;103007.50;5036671;28;20099;-62
2022/03/21 04:52:40;;;;;;;6.10;5.80;;;;;;;1.66;50.70;103006.72;5039948;28;20025;-63
2022/03/21 04:55:09;;;;;;;6.22;5.93;;;;;;;2.76;47.51;103009.44;5048927;28;20057;-63
2022/03/21 04:57:35;;;;;;;6.07;5.78;;;;;;;4.36;43.40;103004.88;5035793;28;20029;-63
2022/03/21 05:00:04;;;;;;;6.25;5.95;;;;;;;5.47;41.06;103008.94;5039189;28;20039;-63
2022/03/21 05:02:30;;;;;;;6.30;6.00;;;;;;;6.58;38.06;102995.84;5041353;28;20021;-63
2022/03/21 05:04:55;;;;;;;6.20;5.90;;;;;;;6.87;36.75;103016.09;5036930;28;20040;-63
2022/03/21 05:07:21;;;;;;;6.55;6.25;;;;;;;7.43;35.21;103008.38;5030527;28;20103;-63
2022/03/21 05:09:48;;;;;;;6.30;6.00;;;;;;;7.88;35.15;103014.41;5031037;28;20068;-61
2022/03/21 05:12:14;;;;;;;6.03;5.80;;;;;;;8.40;34.19;103027.00;5031239;28;20468;-63
2022/03/21 05:14:40;;;;;;;6.05;5.85;;;;;;;9.50;32.46;103014.28;5031446;28;20025;-62
2022/03/21 05:17:09;;;;;;;6.57;6.28;;;;;;;9.86;31.48;103021.47;5031058;28;20108;-62
2022/03/21 05:19:36;;;;;;;6.82;6.53;;;;;;;10.23;30.95;103017.88;5036105;28;20057;-63
2022/03/21 05:22:04;;;;;;;6.68;6.38;;;;;;;10.21;30.01;103017.13;5051296;28;20376;-63
2022/03/21 05:32:41;;;;;;;6.80;6.50;;;;;;;14.07;25.50;103034.78;5045820;28;20598;-63
2022/03/21 05:37:51;;;;;;;7.15;6.85;;;;;;;15.23;23.72;103036.69;5036896;28;20072;-63
2022/03/21 05:40:31;;;;;;;7.07;6.78;;;;;;;15.45;23.51;103028.31;5033776;28;20496;-63
2022/03/21 05:42:57;;;;;;;6.90;6.60;;;;;;;15.77;22.77;103038.63;5041808;28;20024;-63
2022/03/21 05:45:23;;;;;;;7.45;7.15;;;;;;;14.81;23.37;103031.66;5040891;28;20100;-63
2022/03/21 05:50:35;;;;;;;7.18;6.88;;;;;;;15.13;22.66;103039.34;5055191;28;20174;-63
2022/03/21 05:53:02;;;;;;;7.35;7.05;;;;;;;16.15;22.39;103047.47;5054266;28;20060;-64
2022/03/21 05:55:29;;;;;;;7.25;6.95;;;;;;;15.78;22.06;103053.69;5034684;28;20046;-63
2022/03/21 05:57:55;;;;;;;7.30;7.00;;;;;;;16.09;22.25;103045.41;5039075;28;20056;-63
2022/03/21 06:00:20;;;;;;;7.72;7.43;;;;;;;16.24;21.72;103050.09;5032282;28;20049;-62
2022/03/21 06:02:46;;;;;;;7.35;7.05;;;;;;;16.23;21.51;103045.75;5040967;28;20044;-64
2022/03/21 06:05:12;;;;;;;7.18;6.88;;;;;;;17.05;20.36;103051.91;5045842;28;20037;-63
2022/03/21 06:07:37;;;;;;;7.68;7.38;;;;;;;17.34;21.08;103055.13;5039415;28;20123;-63
2022/03/21 06:10:03;;;;;;;7.50;7.20;;;;;;;16.71;21.06;103054.44;5040783;28;20051;-63
2022/03/21 06:12:30;;;;;;;7.45;7.15;;;;;;;17.22;20.50;103047.50;5047399;28;20102;-63
2022/03/21 06:14:56;;;;;;;7.53;7.22;;;;;;;16.94;20.75;103049.44;5034917;28;20025;-64
2022/03/21 06:17:22;;;;;;;7.50;7.20;;;;;;;17.08;20.39;103055.09;5034635;28;20425;-64
2022/03/21 06:19:47;;;;;;;7.43;7.13;;;;;;;17.66;20.31;103059.00;5034604;28;20342;-63
2022/03/21 06:22:13;;;;;;;7.55;7.25;;;;;;;17.63;20.79;103062.84;5034228;28;20108;-64
2022/03/21 06:24:39;;;;;;;7.32;7.03;;;;;;;17.39;20.28;103065.38;5034184;28;20033;-63
2022/03/21 06:27:04;;;;;;;7.70;7.40;;;;;;;16.75;20.72;103064.72;5034146;28;20017;-63
2022/03/21 06:29:30;;;;;;;7.30;7.00;;;;;;;17.74;19.92;103053.69;5034202;28;20021;-64
2022/03/21 06:31:55;;;;;;;7.50;7.20;;;;;;;17.12;100.00;82238.91;5035013;28;20494;-64
2022/03/21 06:34:21;;;;;;;7.18;6.88;;;;;;;17.12;20.04;103053.81;5045403;28;20416;-64
2022/03/21 06:36:46;;;;;;;7.30;7.00;;;;;;;18.64;19.09;103062.88;5034308;28;20095;-63
2022/03/21 06:39:12;;;;;;;7.50;7.20;;;;;;;17.59;19.59;103052.59;5036840;28;20461;-62
2022/03/21 06:41:38;;;;;;;7.43;7.13;;;;;;;17.86;19.56;103056.97;5033832;28;20025;-64
2022/03/21 06:44:04;;;;;;;7.35;7.05;;;;;;;17.51;20.16;103048.03;5034382;28;20075;-64
2022/03/21 06:46:30;;;;;;;7.65;7.35;;;;;;;17.84;19.48;103049.03;5033187;28;20470;-66
2022/03/21 06:48:56;;;;;;;7.30;7.00;;;;;;;18.19;19.34;103052.53;5030864;28;20028;-63
2022/03/21 06:51:22;;;;;;;7.50;7.20;;;;;;;17.16;20.46;103040.91;5034283;28;20116;-66
2022/03/21 06:53:47;;;;;;;7.28;6.97;;;;;;;16.89;20.79;103038.34;5038566;28;20100;-62
2022/03/21 06:56:13;;;;;;;7.57;7.28;;;;;;;16.82;20.91;103044.34;5034313;28;20461;-65
2022/03/21 06:58:38;;;;;;;7.57;7.28;;;;;;;16.90;20.92;103042.72;5039317;28;20030;-65
2022/03/21 07:01:04;;;;;;;7.63;7.32;;;;;;;17.00;20.52;103032.75;5041301;28;20040;-66
2022/03/21 07:03:30;;;;;;;7.43;7.13;;;;;;;17.73;20.38;103040.44;5043820;28;20069;-66
2022/03/21 07:05:56;;;;;;;7.57;7.28;;;;;;;16.89;21.33;103024.94;5043620;28;20039;-65
2022/03/21 07:08:21;;;;;;;7.53;7.22;;;;;;;18.09;20.06;103033.88;5027003;28;20041;-66
2022/03/21 07:10:47;;;;;;;7.43;7.13;;;;;;;18.12;19.75;103036.22;5040920;28;20115;-65
2022/03/21 07:13:12;;;;;;;7.47;7.18;;;;;;;18.08;19.40;103034.88;5034154;28;20377;-64
2022/03/21 07:15:38;;;;;;;7.85;7.55;;;;;;;18.59;19.54;103026.75;5036104;28;20017;-67
2022/03/21 07:18:04;;;;;;;7.50;7.20;;;;;;;19.18;19.14;103024.75;5046999;28;20017;-65
2022/03/21 07:20:30;;;;;;;7.45;7.15;;;;;;;17.61;20.01;103026.41;5042809;28;20049;-65
2022/03/21 07:22:57;;;;;;;7.53;7.22;;;;;;;15.23;21.96;103018.81;5037717;28;20481;-67
2022/03/21 07:25:23;;;;;;;7.72;7.43;;;;;;;17.81;20.94;103024.38;5030495;28;20025;-64
2022/03/21 07:27:49;;;;;;;7.57;7.28;;;;;;;15.75;22.45;103009.34;5035406;28;20038;-66
2022/03/21 07:30:15;;;;;;;7.90;7.60;;;;;;;18.01;19.95;103016.91;5044753;28;20020;-66
2022/03/21 07:32:42;;;;;;;7.90;7.60;;;;;;;17.60;20.53;103019.38;5032028;28;20029;-64
2022/03/21 07:35:08;;;;;;;7.20;6.90;;;;;;;17.85;20.75;103015.00;5035973;28;20025;-64
2022/03/21 07:37:54;;;;;;;7.10;6.80;;;;;;;17.69;20.41;103018.41;5033306;28;20025;-65
2022/03/21 07:40:20;;;;;;;7.82;7.53;;;;;;;18.48;19.26;103011.78;5034297;28;20409;-64
2022/03/21 07:42:47;;;;;;;7.13;6.82;;;;;;;18.08;20.13;103008.03;5038132;28;20032;-63
2022/03/21 07:47:58;;;;;;;7.40;7.10;;;;;;;18.69;20.03;103011.31;5040109;28;20056;-64
2022/03/21 07:50:24;;;;;;;7.63;7.32;;;;;;;17.50;20.68;103008.75;5041366;28;20060;-65
2022/03/21 07:52:51;;;;;;;7.30;7.00;;;;;;;19.62;19.11;103014.41;5034868;28;20392;-65
2022/03/21 07:55:17;;;;;;;7.50;7.20;;;;;;;19.23;19.50;103009.75;5050447;28;20059;-65
2022/03/21 07:57:42;;;;;;;7.50;7.20;;;;;;;18.91;19.45;103001.75;5034936;28;20404;-66
2022/03/21 08:00:09;;;;;;;7.32;7.03;;;;;;;20.37;18.21;103005.75;5033272;28;20048;-65
2022/03/21 08:02:35;;;;;;;7.68;7.38;;;;;;;19.97;18.72;103001.44;5031826;28;20456;-65
2022/03/21 08:05:01;;;;;;;7.43;7.13;;;;;;;20.02;18.29;103005.28;5038369;28;20045;-65
2022/03/21 08:07:27;;;;;;;7.72;7.43;;;;;;;19.94;18.53;102997.25;5036913;28;20395;-64
2022/03/21 08:09:52;;;;;;;7.72;7.43;;;;;;;18.86;19.58;102999.53;5042349;28;20052;-67
2022/03/21 08:12:18;;;;;;;7.55;7.25;;;;;;;19.73;18.57;102997.00;5050358;28;20463;-65
2022/03/21 08:14:44;;;;;;;7.75;7.45;;;;;;;19.52;18.71;102998.41;5036283;28;20033;-66
2022/03/21 08:17:09;;;;;;;7.43;7.13;;;;;;;20.12;18.19;102992.44;5032805;28;20029;-66
2022/03/21 08:19:35;;;;;;;7.30;7.00;;;;;;;20.48;17.43;102988.34;5039243;28;20485;-65
2022/03/21 08:22:03;;;;;;;7.85;7.55;;;;;;;19.80;17.85;102979.97;5030948;28;20059;-68
2022/03/21 08:24:30;;;;;;;7.70;7.40;;;;;;;21.71;16.78;102981.50;5033948;28;20024;-66
2022/03/21 08:26:56;;;;;;;7.75;7.45;;;;;;;19.74;17.54;102980.66;5040717;28;20112;-67
2022/03/21 08:29:21;;;;;;;7.80;7.50;;;;;;;20.76;17.16;102981.34;5040556;28;20174;-68
2022/03/21 08:31:47;;;;;;;7.65;7.35;;;;;;;21.19;16.63;102977.03;5038704;28;20029;-66
2022/03/21 08:34:12;;;;;;;7.78;7.47;;;;;;;21.29;16.59;102970.56;5044585;28;20029;-68
2022/03/21 08:36:38;;;;;;;7.05;6.75;;;;;;;21.70;16.00;102968.19;5041284;28;20507;-65
2022/03/21 08:39:04;;;;;;;7.32;7.03;;;;;;;20.88;16.42;102962.88;5035975;28;20410;-66
2022/03/21 08:41:29;;;;;;;7.93;7.63;;;;;;;19.53;17.60;102959.69;5038612;28;20033;-66
2022/03/21 08:43:55;;;;;;;7.50;7.20;;;;;;;20.53;17.24;102953.59;5042381;28;20037;-65
2022/03/21 08:46:21;;;;;;;7.68;7.38;;;;;;;18.67;18.09;102949.66;5032648;28;20034;-65
2022/03/21 08:51:32;;;;;;;7.70;7.40;;;;;;;16.75;19.54;102943.25;5041108;28;20056;-65
2022/03/21 08:53:57;;;;;;;7.90;7.60;;;;;;;18.29;19.09;102932.34;5047814;28;20024;-66
2022/03/21 08:56:23;;;;;;;8.35;7.95;;;;;;;17.65;19.94;102931.16;5038063;28;20045;-65
2022/03/21 08:58:49;;;;;;;8.70;8.30;;;;;;;18.07;19.74;102938.34;5037073;28;20058;-64
2022/03/21 09:01:15;;;;;;;8.70;8.30;;;;;;;18.10;19.43;102929.94;5030677;28;20104;-64
2022/03/21 09:03:40;;;;;;;8.57;8.18;;;;;;;17.52;19.77;102928.94;5035692;28;20159;-68
2022/03/21 09:06:06;;;;;;;8.40;8.00;;;;;;;17.79;19.95;102921.66;5032923;28;20066;-68
2022/03/21 09:08:31;;;;;;;8.20;7.80;;;;;;;17.20;19.98;102921.59;5042581;28;20033;-68
2022/03/21 09:10:57;;;;;;;8.27;7.88;;;;;;;17.45;19.91;102906.41;5044404;28;20526;-69
2022/03/21 09:13:23;;;;;;;8.00;7.60;;;;;;;17.44;19.96;102899.38;5030702;28;20029;-69
2022/03/21 09:15:48;;;;;;;8.32;7.93;;;;;;;17.39;20.34;102902.53;5037932;28;20075;-68
2022/03/21 09:18:14;;;;;;;8.10;7.70;;;;;;;17.83;20.02;102896.16;5032644;28;20492;-68
2022/03/21 09:20:39;;;;;;;7.70;7.40;;;;;;;18.03;19.50;102884.13;5039399;28;20032;-67
2022/03/21 09:23:05;;;;;;;7.70;7.40;;;;;;;17.93;19.44;102873.53;5038493;28;20033;-68
2022/03/21 09:25:31;;;;;;;7.97;7.57;;;;;;;17.24;19.77;102873.81;5042936;28;20110;-67
2022/03/21 09:27:56;;;;;;;7.45;7.15;;;;;;;17.72;19.92;102875.00;5042029;28;20033;-68
2022/03/21 09:30:23;;;;;;;7.57;7.28;;;;;;;16.63;20.40;102870.25;5042072;28;20401;-67
2022/03/21 09:32:48;;;;;;;7.20;6.90;;;;;;;17.09;20.60;102876.25;5031492;28;20097;-68
2022/03/21 09:35:14;;;;;;;7.47;7.18;;;;;;;17.55;20.15;102866.88;5044356;28;20075;-67
2022/03/21 09:37:39;;;;;;;8.00;7.60;;;;;;;18.40;19.29;102875.53;5032331;28;20028;-68
2022/03/21 09:40:06;;;;;;;7.68;7.38;;;;;;;15.90;21.21;102858.97;5046487;28;20103;-68
2022/03/21 09:42:34;;;;;;;7.65;7.35;;;;;;;16.80;20.35;102872.06;5030916;28;20021;-67
2022/03/21 09:45:00;;;;;;;7.85;7.45;;;;;;;16.54;20.33;102852.47;5024938;28;20180;-67
2022/03/21 09:50:11;;;;;;;;;;;;;;;14.28;21.70;102845.97;5030875;28;20090;-68
2022/03/21 09:52:38;;;;;;;8.02;7.63;;;;;;;15.19;21.97;102847.09;5047042;28;19917;-65
2022/03/21 09:55:07;;;;;;;7.63;7.32;;;;;;;15.42;21.88;102847.56;5039192;28;20052;-68
2022/03/21 09:57:34;;;;;;;7.53;7.22;;;;;;;15.77;21.11;102842.44;5035722;28;20038;-67
2022/03/21 10:00:00;;;;;;;7.47;7.18;;;;;;;14.90;21.90;102847.22;5046607;28;20032;-67
2022/03/21 10:02:25;;;;;;;7.78;7.40;;;;;;;15.01;21.11;102835.53;5041321;28;20029;-68
2022/03/21 10:04:52;;;;;;;7.15;6.85;;;;;;;14.83;20.80;102832.78;5034949;28;20033;-67
2022/03/21 10:07:27;;;;;;;7.95;7.55;;;;;;;14.75;21.28;102818.47;5035580;28;20036;-67
2022/03/21 10:10:12;;;;;;;7.68;7.38;;;;;;;14.72;21.53;102827.63;5045468;28;20033;-67
2022/03/21 10:12:39;;;;;;;7.53;7.22;;;;;;;13.99;21.18;102824.63;5043439;28;20017;-68
2022/03/21 10:15:10;;;;;;;8.02;7.63;;;;;;;14.86;20.74;102824.47;5035542;28;20021;-68
2022/03/21 10:17:36;;;;;;;7.63;7.32;;;;;;;14.52;21.27;102809.97;5035004;28;20029;-68
2022/03/21 10:20:04;;;;;;;8.07;7.68;;;;;;;14.32;21.61;102798.44;5042536;28;20064;-67
2022/03/21 10:22:33;;;;;;;7.80;7.40;;;;;;;13.64;21.84;102813.66;5031401;28;20311;-68
2022/03/21 10:25:02;;;;;;;7.75;7.38;;;;;;;12.70;23.17;102807.72;5042826;28;20220;-66
2022/03/21 10:27:36;;;;;;;7.85;7.45;;;;;;;13.36;22.87;102805.47;5051704;28;20024;-66
2022/03/21 10:30:08;;;;;;;7.95;7.55;;;;;;;13.31;23.28;102786.41;5040827;28;20038;-65
2022/03/21 10:32:42;;;;;;;7.22;6.93;;;;;;;12.72;23.41;102800.47;5036313;28;20030;-65
2022/03/21 10:35:15;;;;;;;7.72;7.32;;;;;;;13.76;22.88;102788.53;5022470;28;20020;-65
2022/03/21 10:37:45;;;;;;;7.78;7.38;;;;;;;13.82;22.94;102793.31;5043854;28;20083;-65
2022/03/21 10:40:19;;;;;;;7.20;6.90;;;;;;;13.59;23.41;102779.41;5051244;28;20021;-65
2022/03/21 10:42:55;;;;;;;7.57;7.20;;;;;;;14.16;23.16;102792.84;5035169;28;20135;-65
2022/03/21 10:45:22;;;;;;;7.40;7.10;;;;;;;14.03;23.16;102777.16;5034888;28;20470;-65
2022/03/21 10:47:52;;;;;;;7.32;7.03;;;;;;;14.59;22.65;102773.66;5038794;28;20031;-67
2022/03/21 10:50:31;;;;;;;7.57;7.22;;;;;;;14.36;22.46;102770.47;5028731;28;20075;-66
2022/03/21 10:53:07;;;;;;;7.47;7.18;;;;;;;14.13;22.59;102755.78;5031292;28;20031;-65
2022/03/21 10:55:33;;;;;;;7.10;6.80;;;;;;;13.82;23.02;102756.81;5027123;28;20059;-65
2022/03/21 10:57:58;;;;;;;7.60;7.28;;;;;;;13.91;22.25;102754.28;5028990;28;20551;-64
2022/03/21 11:00:29;;;;;;;7.57;7.22;;;;;;;13.70;23.09;102752.59;5033669;28;20120;-67
2022/03/21 11:03:15;;;;;;;7.32;7.03;;;;;;;14.34;22.85;102743.94;5036642;28;20031;-66
2022/03/21 11:05:48;;;;;;;8.02;7.63;;;;;;;13.70;22.66;102719.75;5043631;28;20025;-66
2022/03/21 11:08:16;;;;;;;7.10;6.80;;;;;;;13.82;22.94;102732.78;5040333;28;20022;-66
2022/03/21 11:10:43;;;;;;;7.22;6.93;;;;;;;13.57;23.08;102719.19;5039982;28;20610;-66
2022/03/21 11:13:09;;;;;;;7.43;7.13;;;;;;;13.46;23.20;102710.34;5039119;28;20044;-67
2022/03/21 11:15:37;;;;;;;7.65;7.28;;;;;;;13.41;23.35;102709.09;5038077;28;20071;-66
2022/03/21 11:18:05;;;;;;;7.70;7.30;;;;;;;13.52;23.26;102704.47;5044854;28;20028;-67
2022/03/21 11:20:31;;;;;;;7.82;7.43;;;;;;;14.00;22.97;102705.38;5036242;28;20039;-66
2022/03/21 11:22:58;;;;;;;7.25;6.95;;;;;;;13.39;22.89;102689.72;5052876;28;20025;-66
2022/03/21 11:25:28;;;;;;;7.45;7.13;;;;;;;13.45;22.51;102686.50;5049742;28;20032;-66
2022/03/21 11:28:06;;;;;;;8.35;7.95;;;;;;;13.40;23.05;102665.59;5031144;28;20033;-67
2022/03/21 11:30:56;;;;;;;8.23;7.82;;;;;;;13.72;22.83;102667.94;5036181;28;20037;-66
2022/03/21 11:33:30;;;;;;;7.28;6.97;;;;;;;13.97;22.50;102649.63;5045718;28;20079;-65
2022/03/21 11:36:11;;;;;;;7.50;7.15;;;;;;;14.17;21.87;102659.25;5036646;28;20021;-65
2022/03/21 11:38:47;;;;;;;7.40;7.10;;;;;;;14.51;21.83;102662.22;5046373;28;20045;-66
2022/03/21 11:41:23;;;;;;;7.78;7.38;;;;;;;13.60;21.94;102657.59;5034429;28;20036;-65
2022/03/21 11:44:04;;;;;;;8.27;7.88;;;;;;;12.60;22.66;102663.06;5033011;28;20047;-66
2022/03/21 11:46:38;;;;;;;8.35;7.95;;;;;;;13.02;22.66;102662.88;5043293;28;20035;-66
2022/03/21 11:49:05;;;;;;;8.48;8.07;;;;;;;13.34;22.07;102646.63;5023703;28;20016;-67
2022/03/21 11:51:39;;;;;;;7.60;7.20;;;;;;;13.17;22.16;102657.00;5043212;28;20543;-67